sensor_id;sensor_type;location;lat;lon;timestamp;P1;durP1;ratioP1;P2;durP2;ratioP2
59193;SDS011;44967;48.598;15.650;2023-05-07T00:01:46;1.60;;;1.13;;
59193;SDS011;44967;48.598;15.650;2023-05-07T00:04:12;1.83;;;1.20;;
59193;SDS011;44967;48.598;15.650;2023-05-07T00:06:38;1.75;;;1.00;;
59193;SDS011;44967;48.598;15.650;2023-05-07T00:09:05;1.38;;;1.27;;
59193;SDS011;44967;48.598;15.650;2023-05-07T00:11:31;1.17;;;0.95;;
59193;SDS011;44967;48.598;15.650;2023-05-07T00:13:57;2.10;;;1.48;;
59193;SDS011;44967;48.598;15.650;2023-05-07T00:16:23;1.63;;;1.42;;
59193;SDS011;44967;48.598;15.650;2023-05-07T00:18:48;3.20;;;1.90;;
59193;SDS011;44967;48.598;15.650;2023-05-07T00:21:14;2.25;;;1.58;;
59193;SDS011;44967;48.598;15.650;2023-05-07T00:23:40;2.50;;;1.17;;
59193;SDS011;44967;48.598;15.650;2023-05-07T00:26:05;1.95;;;1.30;;
59193;SDS011;44967;48.598;15.650;2023-05-07T00:28:31;1.88;;;1.73;;
59193;SDS011;44967;48.598;15.650;2023-05-07T00:30:57;2.67;;;2.03;;
59193;SDS011;44967;48.598;15.650;2023-05-07T00:33:23;1.95;;;1.75;;
59193;SDS011;44967;48.598;15.650;2023-05-07T00:35:48;2.15;;;1.88;;
59193;SDS011;44967;48.598;15.650;2023-05-07T00:38:14;2.47;;;1.83;;
59193;SDS011;44967;48.598;15.650;2023-05-07T00:40:44;1.60;;;1.50;;
59193;SDS011;44967;48.598;15.650;2023-05-07T00:43:10;2.08;;;1.65;;
59193;SDS011;44967;48.598;15.650;2023-05-07T00:45:36;4.20;;;1.83;;
59193;SDS011;44967;48.598;15.650;2023-05-07T00:48:01;5.28;;;2.05;;
59193;SDS011;44967;48.598;15.650;2023-05-07T00:50:28;3.90;;;2.25;;
59193;SDS011;44967;48.598;15.650;2023-05-07T00:52:54;3.92;;;2.75;;
59193;SDS011;44967;48.598;15.650;2023-05-07T00:55:21;3.35;;;2.38;;
59193;SDS011;44967;48.598;15.650;2023-05-07T00:57:49;2.63;;;2.30;;
59193;SDS011;44967;48.598;15.650;2023-05-07T01:00:15;3.15;;;2.80;;
59193;SDS011;44967;48.598;15.650;2023-05-07T01:02:41;4.15;;;2.95;;
59193;SDS011;44967;48.598;15.650;2023-05-07T01:05:08;4.38;;;2.90;;
59193;SDS011;44967;48.598;15.650;2023-05-07T01:07:36;3.13;;;2.70;;
59193;SDS011;44967;48.598;15.650;2023-05-07T01:10:05;4.82;;;3.38;;
59193;SDS011;44967;48.598;15.650;2023-05-07T01:12:32;4.78;;;3.10;;
59193;SDS011;44967;48.598;15.650;2023-05-07T01:15:00;3.30;;;2.92;;
59193;SDS011;44967;48.598;15.650;2023-05-07T01:17:27;4.28;;;3.20;;
59193;SDS011;44967;48.598;15.650;2023-05-07T01:19:52;4.60;;;3.47;;
59193;SDS011;44967;48.598;15.650;2023-05-07T01:22:40;6.35;;;4.32;;
59193;SDS011;44967;48.598;15.650;2023-05-07T01:25:05;5.25;;;4.00;;
59193;SDS011;44967;48.598;15.650;2023-05-07T01:27:32;6.68;;;4.05;;
59193;SDS011;44967;48.598;15.650;2023-05-07T01:29:59;7.07;;;4.03;;
59193;SDS011;44967;48.598;15.650;2023-05-07T01:32:38;6.32;;;4.25;;
59193;SDS011;44967;48.598;15.650;2023-05-07T01:35:09;6.35;;;4.40;;
59193;SDS011;44967;48.598;15.650;2023-05-07T01:37:38;5.45;;;3.88;;
59193;SDS011;44967;48.598;15.650;2023-05-07T01:40:05;4.63;;;3.63;;
59193;SDS011;44967;48.598;15.650;2023-05-07T01:42:32;5.50;;;4.00;;
59193;SDS011;44967;48.598;15.650;2023-05-07T01:44:58;6.05;;;4.80;;
59193;SDS011;44967;48.598;15.650;2023-05-07T01:47:24;7.13;;;4.30;;
59193;SDS011;44967;48.598;15.650;2023-05-07T01:49:51;7.90;;;6.10;;
59193;SDS011;44967;48.598;15.650;2023-05-07T01:52:17;6.75;;;5.53;;
59193;SDS011;44967;48.598;15.650;2023-05-07T01:54:43;7.90;;;5.55;;
59193;SDS011;44967;48.598;15.650;2023-05-07T01:57:09;8.07;;;5.43;;
59193;SDS011;44967;48.598;15.650;2023-05-07T01:59:35;7.38;;;5.20;;
59193;SDS011;44967;48.598;15.650;2023-05-07T02:02:01;6.80;;;5.43;;
59193;SDS011;44967;48.598;15.650;2023-05-07T02:04:27;7.40;;;5.32;;
59193;SDS011;44967;48.598;15.650;2023-05-07T02:06:52;9.20;;;5.57;;
59193;SDS011;44967;48.598;15.650;2023-05-07T02:09:18;19.42;;;11.50;;
59193;SDS011;44967;48.598;15.650;2023-05-07T02:11:44;9.65;;;6.10;;
59193;SDS011;44967;48.598;15.650;2023-05-07T02:14:10;8.45;;;5.75;;
59193;SDS011;44967;48.598;15.650;2023-05-07T02:16:36;8.40;;;5.75;;
59193;SDS011;44967;48.598;15.650;2023-05-07T02:19:01;6.78;;;4.38;;
59193;SDS011;44967;48.598;15.650;2023-05-07T02:21:27;8.07;;;5.97;;
59193;SDS011;44967;48.598;15.650;2023-05-07T02:23:53;6.88;;;5.40;;
59193;SDS011;44967;48.598;15.650;2023-05-07T02:26:19;9.25;;;5.40;;
59193;SDS011;44967;48.598;15.650;2023-05-07T02:28:45;8.35;;;5.70;;
59193;SDS011;44967;48.598;15.650;2023-05-07T02:31:10;11.90;;;6.47;;
59193;SDS011;44967;48.598;15.650;2023-05-07T02:33:36;9.15;;;5.53;;
59193;SDS011;44967;48.598;15.650;2023-05-07T02:36:05;9.13;;;6.50;;
59193;SDS011;44967;48.598;15.650;2023-05-07T02:38:34;7.57;;;5.80;;
59193;SDS011;44967;48.598;15.650;2023-05-07T02:41:00;8.18;;;5.65;;
59193;SDS011;44967;48.598;15.650;2023-05-07T02:43:26;7.47;;;5.90;;
59193;SDS011;44967;48.598;15.650;2023-05-07T02:46:04;8.40;;;6.28;;
59193;SDS011;44967;48.598;15.650;2023-05-07T02:48:32;9.52;;;6.50;;
59193;SDS011;44967;48.598;15.650;2023-05-07T02:50:58;8.02;;;5.75;;
59193;SDS011;44967;48.598;15.650;2023-05-07T02:53:25;9.35;;;5.40;;
59193;SDS011;44967;48.598;15.650;2023-05-07T02:55:52;8.02;;;4.63;;
59193;SDS011;44967;48.598;15.650;2023-05-07T02:58:18;6.20;;;4.85;;
59193;SDS011;44967;48.598;15.650;2023-05-07T03:00:44;6.00;;;4.97;;
59193;SDS011;44967;48.598;15.650;2023-05-07T03:03:09;6.13;;;4.93;;
59193;SDS011;44967;48.598;15.650;2023-05-07T03:05:36;6.32;;;4.57;;
59193;SDS011;44967;48.598;15.650;2023-05-07T03:08:02;9.10;;;5.00;;
59193;SDS011;44967;48.598;15.650;2023-05-07T03:10:29;7.40;;;5.30;;
59193;SDS011;44967;48.598;15.650;2023-05-07T03:12:55;6.13;;;4.70;;
59193;SDS011;44967;48.598;15.650;2023-05-07T03:15:21;6.40;;;4.80;;
59193;SDS011;44967;48.598;15.650;2023-05-07T03:17:47;7.63;;;5.22;;
59193;SDS011;44967;48.598;15.650;2023-05-07T03:20:13;8.20;;;6.18;;
59193;SDS011;44967;48.598;15.650;2023-05-07T03:22:39;9.90;;;6.35;;
59193;SDS011;44967;48.598;15.650;2023-05-07T03:25:05;9.05;;;6.40;;
59193;SDS011;44967;48.598;15.650;2023-05-07T03:27:32;8.73;;;5.60;;
59193;SDS011;44967;48.598;15.650;2023-05-07T03:29:58;8.18;;;5.30;;
59193;SDS011;44967;48.598;15.650;2023-05-07T03:32:23;7.22;;;5.80;;
59193;SDS011;44967;48.598;15.650;2023-05-07T03:34:49;8.50;;;6.00;;
59193;SDS011;44967;48.598;15.650;2023-05-07T03:37:15;6.07;;;4.93;;
59193;SDS011;44967;48.598;15.650;2023-05-07T03:39:40;8.60;;;5.93;;
59193;SDS011;44967;48.598;15.650;2023-05-07T03:42:06;7.57;;;5.57;;
59193;SDS011;44967;48.598;15.650;2023-05-07T03:44:32;9.50;;;5.72;;
59193;SDS011;44967;48.598;15.650;2023-05-07T03:46:58;8.07;;;5.97;;
59193;SDS011;44967;48.598;15.650;2023-05-07T03:49:24;7.35;;;5.10;;
59193;SDS011;44967;48.598;15.650;2023-05-07T03:51:49;7.05;;;5.53;;
59193;SDS011;44967;48.598;15.650;2023-05-07T03:54:15;7.63;;;5.68;;
59193;SDS011;44967;48.598;15.650;2023-05-07T03:56:41;7.93;;;5.65;;
59193;SDS011;44967;48.598;15.650;2023-05-07T03:59:07;7.03;;;5.47;;
59193;SDS011;44967;48.598;15.650;2023-05-07T04:01:32;7.35;;;5.15;;
59193;SDS011;44967;48.598;15.650;2023-05-07T04:03:58;13.23;;;6.30;;
59193;SDS011;44967;48.598;15.650;2023-05-07T04:06:24;5.88;;;4.88;;
59193;SDS011;44967;48.598;15.650;2023-05-07T04:08:50;6.88;;;5.72;;
59193;SDS011;44967;48.598;15.650;2023-05-07T04:11:17;9.68;;;5.28;;
59193;SDS011;44967;48.598;15.650;2023-05-07T04:13:43;6.85;;;5.00;;
59193;SDS011;44967;48.598;15.650;2023-05-07T04:16:09;8.55;;;5.30;;
59193;SDS011;44967;48.598;15.650;2023-05-07T04:18:34;7.65;;;5.53;;
59193;SDS011;44967;48.598;15.650;2023-05-07T04:21:00;8.52;;;4.57;;
59193;SDS011;44967;48.598;15.650;2023-05-07T04:23:26;7.25;;;5.30;;
59193;SDS011;44967;48.598;15.650;2023-05-07T04:25:52;8.98;;;6.18;;
59193;SDS011;44967;48.598;15.650;2023-05-07T04:28:19;6.97;;;5.25;;
59193;SDS011;44967;48.598;15.650;2023-05-07T04:30:45;7.15;;;5.50;;
59193;SDS011;44967;48.598;15.650;2023-05-07T04:33:11;6.72;;;4.95;;
59193;SDS011;44967;48.598;15.650;2023-05-07T04:35:37;8.35;;;4.90;;
59193;SDS011;44967;48.598;15.650;2023-05-07T04:38:04;7.28;;;5.05;;
59193;SDS011;44967;48.598;15.650;2023-05-07T04:40:31;10.50;;;6.15;;
59193;SDS011;44967;48.598;15.650;2023-05-07T04:42:57;9.65;;;6.63;;
59193;SDS011;44967;48.598;15.650;2023-05-07T04:45:23;7.85;;;6.30;;
59193;SDS011;44967;48.598;15.650;2023-05-07T04:47:49;10.10;;;6.85;;
59193;SDS011;44967;48.598;15.650;2023-05-07T04:50:15;11.68;;;7.25;;
59193;SDS011;44967;48.598;15.650;2023-05-07T04:52:40;9.30;;;7.00;;
59193;SDS011;44967;48.598;15.650;2023-05-07T04:55:06;9.52;;;7.10;;
59193;SDS011;44967;48.598;15.650;2023-05-07T04:57:32;9.48;;;6.70;;
59193;SDS011;44967;48.598;15.650;2023-05-07T04:59:58;9.20;;;6.45;;
59193;SDS011;44967;48.598;15.650;2023-05-07T05:02:24;8.18;;;6.60;;
59193;SDS011;44967;48.598;15.650;2023-05-07T05:04:49;9.65;;;6.70;;
59193;SDS011;44967;48.598;15.650;2023-05-07T05:07:15;9.68;;;7.35;;
59193;SDS011;44967;48.598;15.650;2023-05-07T05:09:41;8.25;;;6.60;;
59193;SDS011;44967;48.598;15.650;2023-05-07T05:12:06;8.65;;;5.95;;
59193;SDS011;44967;48.598;15.650;2023-05-07T05:14:32;7.50;;;6.07;;
59193;SDS011;44967;48.598;15.650;2023-05-07T05:16:58;9.88;;;6.85;;
59193;SDS011;44967;48.598;15.650;2023-05-07T05:19:24;8.15;;;6.70;;
59193;SDS011;44967;48.598;15.650;2023-05-07T05:21:49;7.72;;;5.93;;
59193;SDS011;44967;48.598;15.650;2023-05-07T05:24:15;13.15;;;8.50;;
59193;SDS011;44967;48.598;15.650;2023-05-07T05:26:41;10.18;;;7.90;;
59193;SDS011;44967;48.598;15.650;2023-05-07T05:29:07;12.57;;;7.93;;
59193;SDS011;44967;48.598;15.650;2023-05-07T05:31:33;8.90;;;6.97;;
59193;SDS011;44967;48.598;15.650;2023-05-07T05:33:59;13.77;;;8.25;;
59193;SDS011;44967;48.598;15.650;2023-05-07T05:36:25;10.88;;;7.78;;
59193;SDS011;44967;48.598;15.650;2023-05-07T05:38:51;13.15;;;7.65;;
59193;SDS011;44967;48.598;15.650;2023-05-07T05:41:16;11.73;;;7.47;;
59193;SDS011;44967;48.598;15.650;2023-05-07T05:43:42;11.70;;;7.78;;
59193;SDS011;44967;48.598;15.650;2023-05-07T05:46:08;12.02;;;8.35;;
59193;SDS011;44967;48.598;15.650;2023-05-07T05:48:36;13.55;;;8.35;;
59193;SDS011;44967;48.598;15.650;2023-05-07T05:51:02;10.68;;;7.80;;
59193;SDS011;44967;48.598;15.650;2023-05-07T05:53:28;11.32;;;8.43;;
59193;SDS011;44967;48.598;15.650;2023-05-07T05:55:53;11.15;;;7.68;;
59193;SDS011;44967;48.598;15.650;2023-05-07T05:58:19;11.60;;;8.25;;
59193;SDS011;44967;48.598;15.650;2023-05-07T06:00:45;10.43;;;7.85;;
59193;SDS011;44967;48.598;15.650;2023-05-07T06:03:12;11.18;;;7.50;;
59193;SDS011;44967;48.598;15.650;2023-05-07T06:05:37;11.98;;;8.10;;
59193;SDS011;44967;48.598;15.650;2023-05-07T06:08:03;13.45;;;8.05;;
59193;SDS011;44967;48.598;15.650;2023-05-07T06:10:29;13.43;;;8.05;;
59193;SDS011;44967;48.598;15.650;2023-05-07T06:12:56;10.07;;;7.28;;
59193;SDS011;44967;48.598;15.650;2023-05-07T06:15:22;9.40;;;7.45;;
59193;SDS011;44967;48.598;15.650;2023-05-07T06:17:47;11.20;;;6.80;;
59193;SDS011;44967;48.598;15.650;2023-05-07T06:20:14;11.25;;;7.20;;
59193;SDS011;44967;48.598;15.650;2023-05-07T06:22:40;10.73;;;7.60;;
59193;SDS011;44967;48.598;15.650;2023-05-07T06:25:05;9.65;;;7.00;;
59193;SDS011;44967;48.598;15.650;2023-05-07T06:27:31;8.68;;;6.47;;
59193;SDS011;44967;48.598;15.650;2023-05-07T06:29:57;9.75;;;6.95;;
59193;SDS011;44967;48.598;15.650;2023-05-07T06:32:22;9.77;;;6.57;;
59193;SDS011;44967;48.598;15.650;2023-05-07T06:34:48;8.50;;;6.43;;
59193;SDS011;44967;48.598;15.650;2023-05-07T06:37:14;8.55;;;6.63;;
59193;SDS011;44967;48.598;15.650;2023-05-07T06:39:39;8.68;;;5.90;;
59193;SDS011;44967;48.598;15.650;2023-05-07T06:42:05;9.75;;;6.30;;
59193;SDS011;44967;48.598;15.650;2023-05-07T06:44:31;7.35;;;6.10;;
59193;SDS011;44967;48.598;15.650;2023-05-07T06:46:57;8.80;;;6.88;;
59193;SDS011;44967;48.598;15.650;2023-05-07T06:49:22;10.63;;;8.00;;
59193;SDS011;44967;48.598;15.650;2023-05-07T06:51:48;9.88;;;7.00;;
59193;SDS011;44967;48.598;15.650;2023-05-07T06:54:14;10.52;;;7.80;;
59193;SDS011;44967;48.598;15.650;2023-05-07T06:56:40;11.00;;;7.20;;
59193;SDS011;44967;48.598;15.650;2023-05-07T06:59:05;8.70;;;6.55;;
59193;SDS011;44967;48.598;15.650;2023-05-07T07:01:31;9.82;;;6.13;;
59193;SDS011;44967;48.598;15.650;2023-05-07T07:03:57;9.43;;;6.55;;
59193;SDS011;44967;48.598;15.650;2023-05-07T07:06:23;7.75;;;5.57;;
59193;SDS011;44967;48.598;15.650;2023-05-07T07:08:48;11.55;;;7.85;;
59193;SDS011;44967;48.598;15.650;2023-05-07T07:11:14;8.13;;;6.30;;
59193;SDS011;44967;48.598;15.650;2023-05-07T07:13:40;10.30;;;6.20;;
59193;SDS011;44967;48.598;15.650;2023-05-07T07:16:06;10.63;;;6.32;;
59193;SDS011;44967;48.598;15.650;2023-05-07T07:18:32;7.55;;;5.65;;
59193;SDS011;44967;48.598;15.650;2023-05-07T07:20:57;9.07;;;6.20;;
59193;SDS011;44967;48.598;15.650;2023-05-07T07:23:24;9.55;;;6.45;;
59193;SDS011;44967;48.598;15.650;2023-05-07T07:25:50;8.65;;;6.72;;
59193;SDS011;44967;48.598;15.650;2023-05-07T07:28:15;10.80;;;8.15;;
59193;SDS011;44967;48.598;15.650;2023-05-07T07:30:41;9.77;;;7.57;;
59193;SDS011;44967;48.598;15.650;2023-05-07T07:33:07;10.27;;;7.10;;
59193;SDS011;44967;48.598;15.650;2023-05-07T07:35:34;9.65;;;7.03;;
59193;SDS011;44967;48.598;15.650;2023-05-07T07:38:00;9.77;;;6.43;;
59193;SDS011;44967;48.598;15.650;2023-05-07T07:40:29;11.90;;;6.55;;
59193;SDS011;44967;48.598;15.650;2023-05-07T07:42:56;8.73;;;6.40;;
59193;SDS011;44967;48.598;15.650;2023-05-07T07:45:21;10.05;;;6.97;;
59193;SDS011;44967;48.598;15.650;2023-05-07T07:47:47;8.88;;;5.47;;
59193;SDS011;44967;48.598;15.650;2023-05-07T07:50:14;8.02;;;6.05;;
59193;SDS011;44967;48.598;15.650;2023-05-07T07:52:39;8.00;;;6.05;;
59193;SDS011;44967;48.598;15.650;2023-05-07T07:55:06;11.07;;;6.35;;
59193;SDS011;44967;48.598;15.650;2023-05-07T07:57:32;7.82;;;6.60;;
59193;SDS011;44967;48.598;15.650;2023-05-07T07:59:58;9.55;;;5.88;;
59193;SDS011;44967;48.598;15.650;2023-05-07T08:02:24;7.10;;;6.13;;
59193;SDS011;44967;48.598;15.650;2023-05-07T08:04:50;8.10;;;6.60;;
59193;SDS011;44967;48.598;15.650;2023-05-07T08:07:16;8.60;;;6.00;;
59193;SDS011;44967;48.598;15.650;2023-05-07T08:09:43;9.48;;;6.90;;
59193;SDS011;44967;48.598;15.650;2023-05-07T08:12:09;9.70;;;7.53;;
59193;SDS011;44967;48.598;15.650;2023-05-07T08:14:35;8.38;;;6.18;;
59193;SDS011;44967;48.598;15.650;2023-05-07T08:17:02;11.02;;;7.88;;
59193;SDS011;44967;48.598;15.650;2023-05-07T08:19:27;9.68;;;6.32;;
59193;SDS011;44967;48.598;15.650;2023-05-07T08:21:54;7.80;;;6.88;;
59193;SDS011;44967;48.598;15.650;2023-05-07T08:24:20;9.63;;;7.20;;
59193;SDS011;44967;48.598;15.650;2023-05-07T08:26:46;8.43;;;7.03;;
59193;SDS011;44967;48.598;15.650;2023-05-07T08:29:12;9.73;;;8.00;;
59193;SDS011;44967;48.598;15.650;2023-05-07T08:31:37;10.15;;;7.45;;
59193;SDS011;44967;48.598;15.650;2023-05-07T08:34:06;9.65;;;7.43;;
59193;SDS011;44967;48.598;15.650;2023-05-07T08:36:31;9.90;;;7.22;;
59193;SDS011;44967;48.598;15.650;2023-05-07T08:38:57;9.38;;;7.38;;
59193;SDS011;44967;48.598;15.650;2023-05-07T08:41:23;11.05;;;7.60;;
59193;SDS011;44967;48.598;15.650;2023-05-07T08:43:49;8.73;;;7.10;;
59193;SDS011;44967;48.598;15.650;2023-05-07T08:46:17;10.10;;;7.80;;
59193;SDS011;44967;48.598;15.650;2023-05-07T08:48:44;8.75;;;7.60;;
59193;SDS011;44967;48.598;15.650;2023-05-07T08:51:13;8.82;;;7.07;;
59193;SDS011;44967;48.598;15.650;2023-05-07T08:53:42;9.25;;;6.93;;
59193;SDS011;44967;48.598;15.650;2023-05-07T08:56:08;7.28;;;6.57;;
59193;SDS011;44967;48.598;15.650;2023-05-07T08:58:35;9.00;;;7.82;;
59193;SDS011;44967;48.598;15.650;2023-05-07T09:01:23;8.93;;;6.88;;
59193;SDS011;44967;48.598;15.650;2023-05-07T09:03:49;7.40;;;6.63;;
59193;SDS011;44967;48.598;15.650;2023-05-07T09:06:15;8.10;;;6.50;;
59193;SDS011;44967;48.598;15.650;2023-05-07T09:08:44;8.32;;;6.93;;
59193;SDS011;44967;48.598;15.650;2023-05-07T09:11:15;7.80;;;6.95;;
59193;SDS011;44967;48.598;15.650;2023-05-07T09:13:41;8.27;;;6.70;;
59193;SDS011;44967;48.598;15.650;2023-05-07T09:16:11;7.10;;;6.40;;
59193;SDS011;44967;48.598;15.650;2023-05-07T09:18:44;7.05;;;5.63;;
59193;SDS011;44967;48.598;15.650;2023-05-07T09:21:10;8.10;;;6.97;;
59193;SDS011;44967;48.598;15.650;2023-05-07T09:23:40;8.60;;;7.25;;
59193;SDS011;44967;48.598;15.650;2023-05-07T09:26:06;12.05;;;7.18;;
59193;SDS011;44967;48.598;15.650;2023-05-07T09:28:43;8.75;;;6.88;;
59193;SDS011;44967;48.598;15.650;2023-05-07T09:31:09;9.13;;;7.82;;
59193;SDS011;44967;48.598;15.650;2023-05-07T09:33:36;7.55;;;6.15;;
59193;SDS011;44967;48.598;15.650;2023-05-07T09:36:02;9.07;;;6.63;;
59193;SDS011;44967;48.598;15.650;2023-05-07T09:38:31;9.93;;;7.40;;
59193;SDS011;44967;48.598;15.650;2023-05-07T09:41:04;9.55;;;7.93;;
59193;SDS011;44967;48.598;15.650;2023-05-07T09:43:35;8.15;;;7.07;;
59193;SDS011;44967;48.598;15.650;2023-05-07T09:46:02;9.73;;;8.02;;
59193;SDS011;44967;48.598;15.650;2023-05-07T09:48:39;9.30;;;7.22;;
59193;SDS011;44967;48.598;15.650;2023-05-07T09:53:56;9.00;;;7.43;;
59193;SDS011;44967;48.598;15.650;2023-05-07T09:56:25;10.45;;;7.78;;
59193;SDS011;44967;48.598;15.650;2023-05-07T09:58:50;9.18;;;7.45;;
59193;SDS011;44967;48.598;15.650;2023-05-07T10:01:19;10.85;;;6.90;;
59193;SDS011;44967;48.598;15.650;2023-05-07T10:03:50;10.02;;;7.25;;
59193;SDS011;44967;48.598;15.650;2023-05-07T10:06:17;11.05;;;7.40;;
59193;SDS011;44967;48.598;15.650;2023-05-07T10:08:44;9.55;;;7.90;;
59193;SDS011;44967;48.598;15.650;2023-05-07T10:11:10;10.30;;;7.82;;
59193;SDS011;44967;48.598;15.650;2023-05-07T10:13:37;9.27;;;7.10;;
59193;SDS011;44967;48.598;15.650;2023-05-07T10:16:04;10.15;;;7.65;;
59193;SDS011;44967;48.598;15.650;2023-05-07T10:18:31;9.85;;;7.22;;
59193;SDS011;44967;48.598;15.650;2023-05-07T10:23:58;8.32;;;7.35;;
59193;SDS011;44967;48.598;15.650;2023-05-07T10:26:27;7.80;;;6.55;;
59193;SDS011;44967;48.598;15.650;2023-05-07T10:28:57;8.90;;;7.32;;
59193;SDS011;44967;48.598;15.650;2023-05-07T10:31:43;7.78;;;6.45;;
59193;SDS011;44967;48.598;15.650;2023-05-07T10:34:20;9.85;;;6.38;;
59193;SDS011;44967;48.598;15.650;2023-05-07T10:36:49;9.50;;;6.50;;
59193;SDS011;44967;48.598;15.650;2023-05-07T10:39:17;8.82;;;6.85;;
59193;SDS011;44967;48.598;15.650;2023-05-07T10:41:45;9.68;;;7.38;;
59193;SDS011;44967;48.598;15.650;2023-05-07T10:44:10;9.52;;;7.28;;
59193;SDS011;44967;48.598;15.650;2023-05-07T10:46:36;8.90;;;7.20;;
59193;SDS011;44967;48.598;15.650;2023-05-07T10:51:34;9.43;;;7.50;;
59193;SDS011;44967;48.598;15.650;2023-05-07T10:56:35;8.13;;;6.00;;
59193;SDS011;44967;48.598;15.650;2023-05-07T11:01:58;9.40;;;6.82;;
59193;SDS011;44967;48.598;15.650;2023-05-07T11:04:31;7.50;;;6.28;;
59193;SDS011;44967;48.598;15.650;2023-05-07T11:15:05;7.00;;;5.80;;
59193;SDS011;44967;48.598;15.650;2023-05-07T11:17:32;7.72;;;6.28;;
59193;SDS011;44967;48.598;15.650;2023-05-07T11:20:00;7.78;;;6.60;;
59193;SDS011;44967;48.598;15.650;2023-05-07T11:25:02;8.20;;;6.03;;
59193;SDS011;44967;48.598;15.650;2023-05-07T11:27:28;11.77;;;6.63;;
59193;SDS011;44967;48.598;15.650;2023-05-07T11:29:55;8.18;;;6.45;;
59193;SDS011;44967;48.598;15.650;2023-05-07T11:32:31;7.40;;;6.03;;
59193;SDS011;44967;48.598;15.650;2023-05-07T11:34:59;8.05;;;6.35;;
59193;SDS011;44967;48.598;15.650;2023-05-07T11:37:26;10.45;;;7.65;;
59193;SDS011;44967;48.598;15.650;2023-05-07T11:40:06;8.40;;;6.28;;
59193;SDS011;44967;48.598;15.650;2023-05-07T11:42:35;8.65;;;7.07;;
59193;SDS011;44967;48.598;15.650;2023-05-07T11:45:06;10.60;;;7.10;;
59193;SDS011;44967;48.598;15.650;2023-05-07T11:47:33;8.68;;;7.03;;
59193;SDS011;44967;48.598;15.650;2023-05-07T11:50:02;8.25;;;7.15;;
59193;SDS011;44967;48.598;15.650;2023-05-07T11:52:30;8.95;;;7.15;;
59193;SDS011;44967;48.598;15.650;2023-05-07T11:54:56;7.57;;;6.65;;
59193;SDS011;44967;48.598;15.650;2023-05-07T11:57:23;9.75;;;7.03;;
59193;SDS011;44967;48.598;15.650;2023-05-07T11:59:53;8.32;;;6.35;;
59193;SDS011;44967;48.598;15.650;2023-05-07T12:02:19;7.18;;;6.07;;
59193;SDS011;44967;48.598;15.650;2023-05-07T12:04:45;6.97;;;5.28;;
59193;SDS011;44967;48.598;15.650;2023-05-07T12:07:11;7.68;;;6.03;;
59193;SDS011;44967;48.598;15.650;2023-05-07T12:09:39;7.13;;;5.97;;
59193;SDS011;44967;48.598;15.650;2023-05-07T12:12:05;7.38;;;6.32;;
59193;SDS011;44967;48.598;15.650;2023-05-07T12:14:31;7.53;;;5.97;;
59193;SDS011;44967;48.598;15.650;2023-05-07T12:17:01;7.70;;;5.68;;
59193;SDS011;44967;48.598;15.650;2023-05-07T12:19:30;7.00;;;5.50;;
59193;SDS011;44967;48.598;15.650;2023-05-07T12:21:56;7.63;;;5.57;;
59193;SDS011;44967;48.598;15.650;2023-05-07T12:24:22;8.13;;;5.53;;
59193;SDS011;44967;48.598;15.650;2023-05-07T12:26:48;7.15;;;5.55;;
59193;SDS011;44967;48.598;15.650;2023-05-07T12:29:14;8.07;;;6.13;;
59193;SDS011;44967;48.598;15.650;2023-05-07T12:31:41;6.95;;;5.72;;
59193;SDS011;44967;48.598;15.650;2023-05-07T12:34:07;6.15;;;5.55;;
59193;SDS011;44967;48.598;15.650;2023-05-07T12:36:36;8.32;;;5.68;;
59193;SDS011;44967;48.598;15.650;2023-05-07T12:39:04;7.78;;;6.18;;
59193;SDS011;44967;48.598;15.650;2023-05-07T12:41:55;7.65;;;5.65;;
59193;SDS011;44967;48.598;15.650;2023-05-07T12:44:29;7.88;;;5.65;;
59193;SDS011;44967;48.598;15.650;2023-05-07T12:46:56;7.50;;;5.20;;
59193;SDS011;44967;48.598;15.650;2023-05-07T12:49:22;6.43;;;4.82;;
59193;SDS011;44967;48.598;15.650;2023-05-07T12:51:48;5.57;;;5.00;;
59193;SDS011;44967;48.598;15.650;2023-05-07T12:54:33;6.47;;;5.10;;
59193;SDS011;44967;48.598;15.650;2023-05-07T12:57:03;6.15;;;5.10;;
59193;SDS011;44967;48.598;15.650;2023-05-07T12:59:31;6.28;;;5.00;;
59193;SDS011;44967;48.598;15.650;2023-05-07T13:02:01;5.40;;;3.90;;
59193;SDS011;44967;48.598;15.650;2023-05-07T13:04:27;8.25;;;5.32;;
59193;SDS011;44967;48.598;15.650;2023-05-07T13:06:54;5.95;;;4.18;;
59193;SDS011;44967;48.598;15.650;2023-05-07T13:09:20;5.03;;;4.53;;
59193;SDS011;44967;48.598;15.650;2023-05-07T13:11:46;6.18;;;5.00;;
59193;SDS011;44967;48.598;15.650;2023-05-07T13:14:11;5.95;;;4.80;;
59193;SDS011;44967;48.598;15.650;2023-05-07T13:16:37;5.32;;;4.28;;
59193;SDS011;44967;48.598;15.650;2023-05-07T13:19:03;6.65;;;5.15;;
59193;SDS011;44967;48.598;15.650;2023-05-07T13:21:29;6.80;;;5.47;;
59193;SDS011;44967;48.598;15.650;2023-05-07T13:23:57;5.60;;;4.75;;
59193;SDS011;44967;48.598;15.650;2023-05-07T13:26:23;5.03;;;4.43;;
59193;SDS011;44967;48.598;15.650;2023-05-07T13:28:50;6.15;;;4.38;;
59193;SDS011;44967;48.598;15.650;2023-05-07T13:31:19;5.03;;;4.18;;
59193;SDS011;44967;48.598;15.650;2023-05-07T13:33:46;5.40;;;4.43;;
59193;SDS011;44967;48.598;15.650;2023-05-07T13:36:12;5.15;;;4.57;;
59193;SDS011;44967;48.598;15.650;2023-05-07T13:38:38;5.05;;;4.25;;
59193;SDS011;44967;48.598;15.650;2023-05-07T13:41:05;5.50;;;4.72;;
59193;SDS011;44967;48.598;15.650;2023-05-07T13:43:30;4.72;;;4.18;;
59193;SDS011;44967;48.598;15.650;2023-05-07T13:45:58;6.20;;;4.53;;
59193;SDS011;44967;48.598;15.650;2023-05-07T13:48:25;4.72;;;3.90;;
59193;SDS011;44967;48.598;15.650;2023-05-07T13:50:51;5.93;;;4.75;;
59193;SDS011;44967;48.598;15.650;2023-05-07T13:53:17;3.90;;;3.50;;
59193;SDS011;44967;48.598;15.650;2023-05-07T13:55:43;4.35;;;3.95;;
59193;SDS011;44967;48.598;15.650;2023-05-07T13:58:10;5.45;;;4.25;;
59193;SDS011;44967;48.598;15.650;2023-05-07T14:00:35;4.95;;;4.45;;
59193;SDS011;44967;48.598;15.650;2023-05-07T14:03:01;6.90;;;4.57;;
59193;SDS011;44967;48.598;15.650;2023-05-07T14:05:29;4.10;;;3.70;;
59193;SDS011;44967;48.598;15.650;2023-05-07T14:07:56;4.60;;;4.07;;
59193;SDS011;44967;48.598;15.650;2023-05-07T14:10:22;4.53;;;3.60;;
59193;SDS011;44967;48.598;15.650;2023-05-07T14:12:48;5.05;;;4.32;;
59193;SDS011;44967;48.598;15.650;2023-05-07T14:15:13;5.38;;;4.00;;
59193;SDS011;44967;48.598;15.650;2023-05-07T14:17:40;6.10;;;4.00;;
59193;SDS011;44967;48.598;15.650;2023-05-07T14:20:05;3.72;;;3.42;;
59193;SDS011;44967;48.598;15.650;2023-05-07T14:22:32;5.85;;;3.65;;
59193;SDS011;44967;48.598;15.650;2023-05-07T14:24:57;3.75;;;3.40;;
59193;SDS011;44967;48.598;15.650;2023-05-07T14:27:23;3.88;;;3.45;;
59193;SDS011;44967;48.598;15.650;2023-05-07T14:29:49;5.20;;;4.07;;
59193;SDS011;44967;48.598;15.650;2023-05-07T14:32:19;4.43;;;3.67;;
59193;SDS011;44967;48.598;15.650;2023-05-07T14:34:45;4.15;;;3.35;;
59193;SDS011;44967;48.598;15.650;2023-05-07T14:37:11;3.67;;;3.30;;
59193;SDS011;44967;48.598;15.650;2023-05-07T14:39:40;5.00;;;3.60;;
59193;SDS011;44967;48.598;15.650;2023-05-07T14:42:06;4.97;;;3.85;;
59193;SDS011;44967;48.598;15.650;2023-05-07T14:44:35;4.13;;;3.40;;
59193;SDS011;44967;48.598;15.650;2023-05-07T14:47:01;3.88;;;3.47;;
59193;SDS011;44967;48.598;15.650;2023-05-07T14:49:27;3.33;;;3.03;;
59193;SDS011;44967;48.598;15.650;2023-05-07T14:51:54;4.00;;;3.53;;
59193;SDS011;44967;48.598;15.650;2023-05-07T14:54:22;3.88;;;3.38;;
59193;SDS011;44967;48.598;15.650;2023-05-07T14:56:48;3.83;;;3.42;;